createdAt,value
2022-09-23T00:01:22.576Z,73.19
2022-09-23T00:03:50.347Z,73.22
2022-09-23T00:06:23.110Z,73.20
2022-09-23T00:08:52.584Z,73.11
2022-09-23T00:11:27.897Z,72.83
2022-09-23T00:13:59.921Z,72.71
2022-09-23T00:16:34.233Z,73.12
2022-09-23T00:19:04.329Z,73.16
2022-09-23T00:21:31.828Z,73.32
2022-09-23T00:23:59.417Z,73.02
2022-09-23T00:26:27.623Z,73.83
2022-09-23T00:28:55.135Z,73.56
2022-09-23T00:31:27.407Z,73.84
2022-09-23T00:34:00.762Z,73.34
2022-09-23T00:36:30.425Z,72.32
2022-09-23T00:38:58.200Z,72.75
2022-09-23T00:41:26.253Z,71.93
2022-09-23T00:49:24.970Z,74.33
2022-09-23T00:52:07.721Z,75.18
2022-09-23T00:54:38.108Z,75.34
2022-09-23T00:57:06.918Z,75.60
2022-09-23T00:59:36.665Z,74.62
2022-09-23T01:02:13.117Z,74.13
2022-09-23T01:04:41.068Z,74.07
2022-09-23T01:07:08.509Z,73.87
2022-09-23T01:09:36.894Z,73.89
2022-09-23T01:30:09.112Z,74.04
2022-09-23T01:33:04.754Z,74.25
2022-09-23T01:44:10.074Z,74.19
2022-09-23T01:52:07.808Z,72.78
2022-09-23T01:57:41.100Z,74.18
2022-09-23T02:00:18.045Z,74.13
2022-09-23T02:03:05.076Z,72.49
2022-09-23T02:05:43.961Z,72.69
2022-09-23T02:08:22.182Z,73.24
2022-09-23T02:10:58.731Z,74.08
2022-09-23T02:13:57.849Z,73.07
2022-09-23T02:16:39.892Z,74.78
2022-09-23T02:19:18.312Z,75.35
2022-09-23T02:21:57.692Z,73.76
2022-09-23T02:24:32.804Z,75.09
2022-09-23T02:33:18.562Z,74.67
2022-09-23T02:36:00.190Z,73.86
2022-09-23T02:38:45.952Z,73.39
2022-09-23T02:44:17.190Z,73.90
2022-09-23T02:46:45.278Z,74.22
2022-09-23T02:51:53.276Z,74.05
2022-09-23T02:54:25.870Z,75.18
2022-09-23T02:56:54.353Z,74.30
2022-09-23T02:59:27.978Z,75.50
2022-09-23T03:02:36.293Z,75.48
2022-09-23T03:22:10.808Z,72.37
2022-09-23T03:24:44.994Z,73.38
2022-09-23T03:27:23.473Z,73.78
2022-09-23T03:29:54.598Z,74.38
2022-09-23T03:32:35.397Z,74.66
2022-09-23T03:35:06.622Z,74.36
2022-09-23T03:37:57.114Z,74.19
2022-09-23T03:40:43.112Z,73.46
2022-09-23T03:43:13.529Z,72.95
2022-09-23T03:45:42.775Z,72.61
2022-09-23T03:48:10.697Z,72.69
2022-09-23T03:50:41.168Z,71.97
2022-09-23T03:53:08.759Z,73.94
2022-09-23T03:55:39.575Z,73.58
2022-09-23T03:58:08.207Z,73.43
2022-09-23T04:00:36.386Z,72.26
2022-09-23T04:03:07.196Z,72.58
2022-09-23T04:05:38.592Z,73.97
2022-09-23T04:08:06.652Z,73.40
2022-09-23T04:10:34.439Z,72.87
2022-09-23T04:13:09.884Z,72.27
2022-09-23T04:15:38.285Z,72.26
2022-09-23T04:18:06.174Z,72.42
2022-09-23T04:20:34.326Z,72.92
2022-09-23T04:23:02.417Z,72.97
2022-09-23T04:25:31.915Z,72.69
2022-09-23T04:28:00.077Z,73.34
2022-09-23T04:30:27.775Z,73.23
2022-09-23T04:32:55.727Z,73.84
2022-09-23T04:35:23.260Z,73.44
2022-09-23T04:37:50.714Z,73.49
2022-09-23T04:40:19.461Z,73.41
2022-09-23T04:42:47.634Z,72.85
2022-09-23T04:45:15.694Z,73.38
2022-09-23T04:47:43.499Z,72.84
2022-09-23T04:50:13.592Z,73.10
2022-09-23T04:52:41.461Z,73.63
2022-09-23T04:55:14.546Z,73.12
2022-09-23T04:57:42.776Z,73.07
2022-09-23T05:00:15.347Z,72.15
2022-09-23T05:02:48.289Z,72.75
2022-09-23T05:05:21.488Z,73.47
2022-09-23T05:07:53.894Z,73.43
2022-09-23T05:10:25.198Z,73.08
2022-09-23T05:12:57.015Z,72.26
2022-09-23T05:15:31.033Z,72.38
2022-09-23T05:18:02.979Z,72.15
2022-09-23T05:20:31.472Z,73.18
2022-09-23T05:23:00.542Z,73.14
2022-09-23T05:25:40.316Z,73.26
2022-09-23T05:28:13.431Z,73.29
2022-09-23T05:30:46.171Z,72.78
2022-09-23T05:33:16.994Z,72.64
2022-09-23T05:35:48.870Z,72.36
2022-09-23T05:38:18.002Z,72.79
2022-09-23T05:40:51.989Z,72.51
2022-09-23T05:43:23.286Z,72.00
2022-09-23T05:46:14.162Z,71.14
2022-09-23T05:48:47.906Z,71.52
2022-09-23T05:51:30.642Z,71.60
2022-09-23T05:54:07.218Z,71.09
2022-09-23T05:56:38.325Z,70.07
2022-09-23T05:59:06.983Z,69.77
2022-09-23T06:01:38.574Z,69.36
2022-09-23T06:04:12.954Z,68.16
2022-09-23T06:06:43.052Z,68.53
2022-09-23T06:09:15.102Z,68.22
2022-09-23T06:11:43.416Z,68.10
2022-09-23T06:14:14.965Z,67.07
2022-09-23T06:16:43.202Z,66.76
2022-09-23T06:19:10.813Z,66.06
2022-09-23T06:21:40.833Z,65.76
2022-09-23T06:24:11.168Z,66.29
2022-09-23T06:26:40.863Z,64.82
2022-09-23T06:29:12.315Z,64.59
2022-09-23T06:31:42.139Z,62.70
2022-09-23T06:34:14.673Z,63.10
2022-09-23T06:36:45.896Z,62.54
2022-09-23T06:39:15.962Z,61.62
2022-09-23T06:41:45.140Z,60.78
2022-09-23T06:44:15.088Z,59.54
2022-09-23T06:46:43.274Z,59.12
2022-09-23T06:49:13.413Z,59.26
2022-09-23T06:51:41.473Z,58.56
2022-09-23T06:54:09.365Z,56.69
2022-09-23T06:56:39.515Z,56.72
2022-09-23T06:59:10.971Z,54.41
2022-09-23T07:01:38.999Z,49.40
2022-09-23T07:04:07.474Z,45.03
2022-09-23T07:06:36.105Z,42.13
2022-09-23T07:09:07.218Z,40.27
2022-09-23T07:11:34.876Z,37.29
2022-09-23T07:14:06.237Z,35.03
2022-09-23T07:16:36.655Z,32.25
2022-09-23T07:19:08.643Z,32.12
2022-09-23T07:21:36.865Z,33.21
2022-09-23T07:24:05.477Z,31.77
2022-09-23T07:26:34.681Z,29.88
2022-09-23T07:29:05.069Z,30.05
2022-09-23T07:31:40.033Z,28.88
2022-09-23T07:34:11.579Z,29.33
2022-09-23T07:36:41.053Z,28.86
2022-09-23T07:39:12.786Z,27.78
2022-09-23T07:41:44.744Z,28.08
2022-09-23T07:44:12.871Z,25.95
2022-09-23T07:46:41.086Z,23.58
2022-09-23T07:49:11.675Z,22.62
2022-09-23T07:51:45.930Z,21.49
2022-09-23T07:54:17.070Z,21.26
2022-09-23T07:56:47.450Z,23.42
2022-09-23T07:59:19.714Z,23.65
2022-09-23T08:01:54.038Z,24.08
2022-09-23T08:04:29.185Z,24.88
2022-09-23T08:07:04.726Z,25.42
2022-09-23T08:09:42.797Z,26.52
2022-09-23T08:12:16.572Z,27.15
2022-09-23T08:14:44.890Z,27.03
2022-09-23T08:17:16.076Z,28.46
2022-09-23T08:19:43.594Z,28.93
2022-09-23T08:22:12.257Z,28.07
2022-09-23T08:24:39.891Z,29.27
2022-09-23T08:27:07.312Z,29.08
2022-09-23T08:29:34.922Z,29.57
2022-09-23T08:32:02.678Z,29.44
2022-09-23T08:34:30.010Z,27.81
2022-09-23T08:36:57.550Z,29.01
2022-09-23T08:39:24.915Z,28.92
2022-09-23T08:50:18.846Z,25.41
2022-09-23T08:53:11.754Z,25.63
2022-09-23T08:55:48.536Z,24.67
2022-09-23T09:04:05.769Z,24.96
2022-09-23T09:06:52.907Z,23.96
2022-09-23T09:09:36.685Z,22.96
2022-09-23T09:15:29.262Z,22.85
2022-09-23T09:23:34.999Z,24.27
2022-09-23T09:26:04.477Z,23.76
2022-09-23T09:28:49.181Z,22.31
2022-09-23T09:37:25.236Z,23.69
2022-09-23T09:39:52.785Z,24.06
2022-09-23T09:42:35.083Z,22.50
2022-09-23T09:45:57.532Z,21.66
2022-09-23T09:48:59.977Z,21.26
2022-09-23T09:51:29.291Z,20.87
2022-09-23T09:54:23.151Z,19.65
2022-09-23T09:56:52.751Z,18.39
2022-09-23T09:59:29.958Z,18.00
2022-09-23T10:05:03.882Z,17.48
2022-09-23T10:07:34.153Z,17.00
2022-09-23T10:10:33.704Z,15.85
2022-09-23T10:13:17.650Z,15.05
2022-09-23T10:15:46.014Z,14.17
2022-09-23T10:21:18.003Z,15.80
2022-09-23T10:23:52.552Z,15.51
2022-09-23T10:26:50.678Z,14.53
2022-09-23T10:47:04.913Z,13.85
2022-09-23T10:50:03.525Z,12.59
2022-09-23T11:11:19.845Z,13.28
2022-09-23T11:36:42.625Z,13.62
2022-09-23T11:39:20.550Z,13.12
2022-09-23T11:41:52.558Z,12.45
2022-09-23T11:44:34.059Z,12.47
2022-09-23T11:49:59.332Z,13.39
2022-09-23T11:52:41.446Z,14.10
2022-09-23T11:55:23.352Z,14.11
2022-09-23T12:00:49.306Z,13.11
2022-09-23T12:06:22.857Z,12.84
2022-09-23T12:09:02.881Z,13.49
2022-09-23T12:12:05.212Z,13.07
2022-09-23T12:28:37.658Z,13.99
2022-09-23T12:31:13.053Z,13.91
2022-09-23T12:33:44.515Z,15.24
2022-09-23T12:36:12.650Z,15.09
2022-09-23T12:46:48.428Z,16.50
2022-09-23T12:54:51.572Z,17.43
2022-09-23T13:05:46.626Z,21.21
2022-09-23T13:08:25.073Z,20.30
2022-09-23T13:11:01.155Z,20.22
2022-09-23T13:16:38.530Z,19.97
2022-09-23T13:24:48.807Z,19.69
2022-09-23T13:30:07.757Z,20.30
2022-09-23T13:32:45.374Z,20.78
2022-09-23T13:37:51.437Z,21.60
2022-09-23T13:40:29.920Z,21.83
2022-09-23T13:45:43.481Z,23.18
2022-09-23T13:48:15.587Z,23.49
2022-09-23T13:50:50.658Z,23.84
2022-09-23T13:53:31.496Z,24.93
2022-09-23T13:56:18.468Z,25.05
2022-09-23T13:58:45.775Z,25.40
2022-09-23T14:01:35.256Z,25.06
2022-09-23T14:04:02.874Z,24.81
2022-09-23T14:06:32.088Z,25.12
2022-09-23T14:09:02.665Z,25.44
2022-09-23T14:11:35.328Z,26.54
2022-09-23T14:14:07.358Z,28.30
2022-09-23T14:16:40.813Z,29.87
2022-09-23T14:19:18.753Z,29.67
2022-09-23T14:21:53.570Z,30.49
2022-09-23T14:24:32.550Z,29.68
2022-09-23T14:27:16.393Z,29.06
2022-09-23T14:29:48.167Z,28.84
2022-09-23T14:32:24.456Z,29.22
2022-09-23T14:40:32.778Z,30.76
2022-09-23T14:43:25.936Z,31.27
2022-09-23T14:45:58.101Z,31.68
2022-09-23T14:48:33.299Z,31.69
2022-09-23T14:51:10.790Z,30.97
2022-09-23T14:53:46.457Z,31.36
2022-09-23T14:59:00.747Z,30.72
2022-09-23T15:07:17.828Z,31.11
2022-09-23T15:09:46.274Z,30.66
2022-09-23T15:14:56.956Z,29.65
2022-09-23T15:20:08.697Z,30.25
2022-09-23T15:22:55.685Z,31.46
2022-09-23T15:25:43.348Z,31.67
2022-09-23T15:30:50.767Z,34.03
2022-09-23T15:33:18.545Z,34.37
2022-09-23T15:35:49.455Z,34.12
2022-09-23T15:38:18.022Z,33.84
2022-09-23T15:40:45.430Z,34.50
2022-09-23T15:43:22.505Z,34.61
2022-09-23T15:46:06.831Z,34.95
2022-09-23T15:48:56.391Z,34.81
2022-09-23T15:51:28.378Z,35.27
2022-09-23T15:53:56.382Z,34.91
2022-09-23T15:56:27.079Z,34.87
2022-09-23T15:58:54.704Z,34.55
2022-09-23T16:01:35.986Z,34.82
2022-09-23T16:04:05.020Z,35.48
2022-09-23T16:06:36.001Z,35.57
2022-09-23T16:09:04.037Z,35.76
2022-09-23T16:11:32.757Z,36.01
2022-09-23T16:14:00.799Z,36.38
2022-09-23T16:16:28.608Z,36.64
2022-09-23T16:18:56.011Z,36.98
2022-09-23T16:21:28.696Z,37.57
2022-09-23T16:23:59.157Z,37.99
2022-09-23T16:26:36.893Z,38.12
2022-09-23T16:29:04.531Z,38.10
2022-09-23T16:31:32.274Z,38.33
2022-09-23T16:34:02.492Z,39.18
2022-09-23T16:39:12.857Z,40.13
2022-09-23T16:41:42.830Z,40.47
2022-09-23T16:44:12.583Z,40.76
2022-09-23T16:46:42.935Z,41.07
2022-09-23T16:49:12.140Z,42.05
2022-09-23T16:51:40.865Z,42.75
2022-09-23T16:54:12.255Z,42.80
2022-09-23T16:56:44.372Z,42.54
2022-09-23T16:59:15.939Z,43.76
2022-09-23T17:02:08.316Z,43.66
2022-09-23T17:04:36.019Z,43.85
2022-09-23T17:07:03.410Z,44.34
2022-09-23T17:09:32.064Z,44.81
2022-09-23T17:12:28.667Z,46.02
2022-09-23T17:15:09.707Z,45.76
2022-09-23T17:17:41.611Z,45.53
2022-09-23T17:20:29.368Z,45.47
2022-09-23T17:22:56.631Z,45.86
2022-09-23T17:25:24.781Z,46.35
2022-09-23T17:27:53.032Z,47.56
2022-09-23T17:30:20.478Z,47.77
2022-09-23T17:32:48.634Z,48.10
2022-09-23T17:35:17.130Z,48.06
2022-09-23T17:37:46.437Z,47.45
2022-09-23T17:40:14.370Z,47.51
2022-09-23T17:42:42.536Z,46.98
2022-09-23T17:45:12.523Z,47.56
2022-09-23T17:47:41.896Z,48.16
2022-09-23T17:50:09.835Z,48.58
2022-09-23T17:52:37.243Z,49.96
2022-09-23T17:55:05.547Z,50.37
2022-09-23T17:57:32.908Z,50.77
2022-09-23T18:00:00.671Z,51.33
2022-09-23T18:02:28.517Z,51.51
2022-09-23T18:04:56.063Z,51.53
2022-09-23T18:07:23.634Z,51.97
2022-09-23T18:09:50.976Z,52.61
2022-09-23T18:12:18.407Z,51.90
2022-09-23T18:14:54.368Z,51.51
2022-09-23T18:17:21.800Z,52.32
2022-09-23T18:19:49.619Z,52.41
2022-09-23T18:22:17.087Z,51.51
2022-09-23T18:24:44.704Z,53.05
2022-09-23T18:27:12.412Z,53.03
2022-09-23T18:29:39.721Z,53.54
2022-09-23T18:32:09.926Z,54.52
2022-09-23T18:34:39.454Z,55.23
2022-09-23T18:37:15.379Z,55.68
2022-09-23T18:39:44.694Z,55.76
2022-09-23T18:42:12.388Z,55.57
2022-09-23T18:44:40.154Z,55.64
2022-09-23T18:47:07.470Z,55.34
2022-09-23T18:49:54.686Z,55.89
2022-09-23T18:52:21.993Z,54.65
2022-09-23T18:54:54.364Z,54.51
2022-09-23T18:57:22.630Z,55.79
2022-09-23T18:59:50.425Z,55.81
2022-09-23T19:02:18.058Z,56.34
2022-09-23T19:04:45.838Z,56.10
2022-09-23T19:07:13.290Z,56.09
2022-09-23T19:09:45.049Z,56.20
2022-09-23T19:12:27.453Z,56.57
2022-09-23T19:15:22.637Z,57.23
2022-09-23T19:17:50.256Z,57.13
2022-09-23T19:20:17.690Z,57.01
2022-09-23T19:22:48.088Z,57.83
2022-09-23T19:25:17.402Z,58.32
2022-09-23T19:27:44.976Z,58.24
2022-09-23T19:30:13.466Z,58.05
2022-09-23T19:32:44.577Z,58.00
2022-09-23T19:35:15.867Z,57.00
2022-09-23T19:37:46.043Z,58.21
2022-09-23T19:40:13.891Z,57.21
2022-09-23T19:42:43.102Z,57.43
2022-09-23T19:45:10.698Z,57.18
2022-09-23T19:47:38.178Z,56.84
2022-09-23T19:54:10.507Z,59.06
2022-09-23T19:56:38.693Z,59.92
2022-09-23T19:59:07.461Z,59.58
2022-09-23T20:01:36.031Z,59.23
2022-09-23T20:04:05.651Z,59.62
2022-09-23T20:06:38.008Z,59.53
2022-09-23T20:09:06.042Z,59.56
2022-09-23T20:11:34.582Z,59.76
2022-09-23T20:14:04.930Z,59.78
2022-09-23T20:16:36.877Z,58.68
2022-09-23T20:19:06.070Z,60.56
2022-09-23T20:21:35.317Z,61.69
2022-09-23T20:24:06.475Z,60.66
2022-09-23T20:26:54.005Z,60.22
2022-09-23T20:29:21.733Z,60.37
2022-09-23T20:31:49.307Z,60.67
2022-09-23T20:34:16.828Z,61.63
2022-09-23T20:36:44.262Z,61.58
2022-09-23T20:39:11.742Z,61.11
2022-09-23T20:41:39.874Z,61.18
2022-09-23T20:44:12.661Z,61.71
2022-09-23T20:46:48.192Z,62.05
2022-09-23T20:49:17.947Z,61.70
2022-09-23T20:51:48.835Z,61.65
2022-09-23T20:54:21.186Z,62.03
2022-09-23T20:56:48.683Z,62.02
2022-09-23T20:59:17.738Z,61.91
2022-09-23T21:01:47.455Z,60.95
2022-09-23T21:04:15.486Z,62.27
2022-09-23T21:06:42.833Z,62.80
2022-09-23T21:09:10.168Z,62.58
2022-09-23T21:11:38.141Z,63.92
2022-09-23T21:14:05.755Z,64.12
2022-09-23T21:16:33.126Z,65.16
2022-09-23T21:19:03.081Z,64.70
2022-09-23T21:21:30.701Z,63.58
2022-09-23T21:24:17.143Z,62.66
2022-09-23T21:26:47.873Z,63.16
2022-09-23T21:29:15.261Z,63.34
2022-09-23T21:31:42.956Z,63.72
2022-09-23T21:34:12.578Z,63.37
2022-09-23T21:36:44.057Z,63.75
2022-09-23T21:39:12.636Z,64.13
2022-09-23T21:41:40.388Z,64.76
2022-09-23T21:44:08.421Z,64.36
2022-09-23T21:46:36.781Z,64.56
2022-09-23T21:49:05.237Z,65.73
2022-09-23T21:51:40.219Z,65.17
2022-09-23T21:54:15.445Z,65.54
2022-09-23T21:56:44.342Z,65.32
2022-09-23T21:59:12.104Z,65.10
2022-09-23T22:01:44.844Z,64.58
2022-09-23T22:04:18.631Z,64.56
2022-09-23T22:06:48.719Z,64.59
2022-09-23T22:09:20.978Z,64.39
2022-09-23T22:12:08.422Z,64.51
2022-09-23T22:14:36.874Z,63.95
2022-09-23T22:17:10.283Z,64.23
2022-09-23T22:19:45.834Z,64.81
2022-09-23T22:22:17.677Z,63.93
2022-09-23T22:24:47.351Z,65.89
2022-09-23T22:27:18.685Z,66.12
2022-09-23T22:30:05.899Z,65.75
2022-09-23T22:32:40.422Z,65.56
2022-09-23T22:35:14.061Z,64.60
2022-09-23T22:37:41.311Z,64.41
2022-09-23T22:40:14.878Z,64.82
2022-09-23T22:42:43.325Z,64.50
2022-09-23T22:45:12.699Z,63.79
2022-09-23T22:47:44.006Z,64.31
2022-09-23T22:50:13.797Z,65.37
2022-09-23T22:52:41.190Z,67.06
2022-09-23T22:55:09.536Z,67.94
2022-09-23T22:57:37.185Z,67.10
2022-09-23T23:00:07.860Z,67.11
2022-09-23T23:02:35.192Z,66.00
2022-09-23T23:05:02.574Z,66.20
2022-09-23T23:07:29.779Z,66.81
2022-09-23T23:09:57.505Z,67.46
2022-09-23T23:12:24.748Z,67.38
2022-09-23T23:14:54.785Z,67.11
2022-09-23T23:17:21.983Z,66.69
2022-09-23T23:19:50.487Z,66.81
2022-09-23T23:22:17.822Z,66.61
2022-09-23T23:24:45.285Z,66.85
2022-09-23T23:27:15.199Z,67.07
2022-09-23T23:29:42.474Z,67.02
2022-09-23T23:32:15.581Z,66.78
2022-09-23T23:34:43.360Z,67.20
2022-09-23T23:37:10.907Z,68.61
2022-09-23T23:39:38.212Z,69.41
2022-09-23T23:42:05.761Z,68.83
2022-09-23T23:44:34.306Z,68.27
2022-09-23T23:47:01.786Z,67.40
2022-09-23T23:49:29.060Z,67.68
2022-09-23T23:51:56.544Z,67.54
2022-09-23T23:54:23.839Z,68.01
2022-09-23T23:56:51.206Z,68.64
2022-09-23T23:59:20.775Z,69.01
